Time;durP1;ratioP1;P1;durP2;ratioP2;P2;SDS_P1;SDS_P2;PMS_P1;PMS_P2;Temp;Humidity;BMP_temperature;BMP_pressure;BME280_temperature;BME280_humidity;BME280_pressure;Samples;Min_cycle;Max_cycle;Signal;HPM_P1;HPM_P2
2021/12/19 00:00:28;;;;;;;49.20;18.27;;;7.10;99.90;;;;;;5012471;28;20034;-88
2021/12/19 00:03:19;;;;;;;44.47;17.15;;;7.20;99.90;;;;;;5012071;28;20041;-88
2021/12/19 00:08:45;;;;;;;58.67;18.58;;;7.20;99.90;;;;;;5010054;28;20110;-88
2021/12/19 00:11:10;;;;;;;60.43;17.83;;;7.10;99.90;;;;;;5007332;28;20414;-88
2021/12/19 00:13:36;;;;;;;70.93;19.48;;;7.10;99.90;;;;;;5006322;28;20076;-88
2021/12/19 00:16:02;;;;;;;61.55;18.83;;;7.10;99.90;;;;;;5012402;28;20053;-88
2021/12/19 00:18:27;;;;;;;78.95;21.33;;;7.10;99.90;;;;;;5011645;28;20030;-88
2021/12/19 00:20:53;;;;;;;77.88;19.92;;;7.00;99.90;;;;;;5011147;28;20065;-88
2021/12/19 00:23:18;;;;;;;75.05;18.38;;;7.00;99.90;;;;;;5011108;28;20033;-88
2021/12/19 00:25:44;;;;;;;80.25;20.90;;;7.00;99.90;;;;;;5008943;28;20072;-89
2021/12/19 00:28:10;;;;;;;82.45;19.83;;;7.00;99.90;;;;;;5001631;28;20080;-89
2021/12/19 00:30:36;;;;;;;73.18;19.42;;;7.00;99.90;;;;;;5010683;28;20038;-89
2021/12/19 00:33:01;;;;;;;65.95;17.20;;;7.00;99.90;;;;;;5003097;28;20025;-88
2021/12/19 00:35:27;;;;;;;61.60;17.30;;;7.00;99.90;;;;;;5005063;28;20500;-89
2021/12/19 00:37:54;;;;;;;68.05;18.80;;;7.00;99.90;;;;;;5009765;28;20045;-89
2021/12/19 00:40:21;;;;;;;75.22;19.50;;;7.10;99.90;;;;;;5012040;28;20505;-89
2021/12/19 00:43:01;;;;;;;62.80;17.50;;;7.10;99.90;;;;;;5011140;28;20406;-89
2021/12/19 00:45:30;;;;;;;68.25;18.45;;;7.10;99.90;;;;;;5005744;28;20092;-89
2021/12/19 00:47:57;;;;;;;56.25;16.67;;;7.10;99.90;;;;;;5011354;28;20061;-88
2021/12/19 00:50:23;;;;;;;71.10;17.77;;;7.00;99.90;;;;;;5010412;28;20140;-88
2021/12/19 00:52:49;;;;;;;68.47;17.42;;;7.00;99.90;;;;;;5010169;28;20025;-88
2021/12/19 00:55:16;;;;;;;64.57;17.30;;;6.90;99.90;;;;;;5008702;28;20498;-88
2021/12/19 00:57:42;;;;;;;64.45;16.80;;;6.90;99.90;;;;;;5012974;28;20041;-88
2021/12/19 01:00:10;;;;;;;64.03;17.67;;;6.80;99.90;;;;;;5013523;28;20482;-89
2021/12/19 01:02:35;;;;;;;66.63;17.65;;;6.70;99.90;;;;;;5010290;28;20030;-88
2021/12/19 01:05:03;;;;;;;72.55;18.75;;;6.70;99.90;;;;;;5014780;28;20050;-89
2021/12/19 01:07:29;;;;;;;49.70;15.48;;;6.60;99.90;;;;;;5011322;28;20390;-89
2021/12/19 01:09:54;;;;;;;53.55;17.38;;;6.60;99.90;;;;;;5015869;28;20025;-88
2021/12/19 01:12:20;;;;;;;46.03;14.73;;;6.50;99.90;;;;;;5022647;28;20033;-88
2021/12/19 01:14:45;;;;;;;53.10;16.90;;;6.40;99.90;;;;;;5013958;28;20030;-88
2021/12/19 01:17:11;;;;;;;44.67;14.82;;;6.40;99.90;;;;;;5007956;28;20071;-89
2021/12/19 01:19:37;;;;;;;42.38;15.75;;;6.40;99.90;;;;;;5014911;28;20033;-88
2021/12/19 01:22:04;;;;;;;44.33;16.67;;;6.40;99.90;;;;;;5011676;28;20053;-88
2021/12/19 01:24:29;;;;;;;45.38;17.70;;;6.40;99.90;;;;;;5012922;28;20042;-88
2021/12/19 01:26:55;;;;;;;57.00;19.88;;;6.40;99.90;;;;;;5022287;28;20030;-89
2021/12/19 01:29:21;;;;;;;61.13;19.85;;;6.40;99.90;;;;;;5022812;28;20026;-89
2021/12/19 01:31:46;;;;;;;62.50;20.08;;;6.40;99.90;;;;;;5015558;28;20064;-89
2021/12/19 01:34:12;;;;;;;58.17;19.45;;;6.40;99.90;;;;;;5015988;28;20505;-88
2021/12/19 01:36:40;;;;;;;59.83;20.73;;;6.30;99.90;;;;;;5011406;28;20371;-88
2021/12/19 01:39:05;;;;;;;60.97;20.60;;;6.40;99.90;;;;;;5015040;28;20033;-88
2021/12/19 01:41:31;;;;;;;60.75;20.05;;;6.40;99.90;;;;;;5007124;28;20034;-88
2021/12/19 01:43:56;;;;;;;59.35;19.00;;;6.40;99.90;;;;;;5013424;28;20041;-88
2021/12/19 01:46:23;;;;;;;67.68;21.17;;;6.40;99.90;;;;;;5014352;28;20030;-89
2021/12/19 01:48:49;;;;;;;73.32;22.25;;;6.40;99.90;;;;;;5014520;28;20061;-89
2021/12/19 01:51:15;;;;;;;61.90;20.10;;;6.40;99.90;;;;;;5014837;28;20069;-89
2021/12/19 01:53:40;;;;;;;138.43;29.63;;;6.40;99.90;;;;;;5014678;28;20430;-88
2021/12/19 01:56:07;;;;;;;96.47;25.05;;;6.40;99.90;;;;;;5010912;28;20394;-89
2021/12/19 01:58:34;;;;;;;99.80;25.60;;;6.30;99.90;;;;;;5012490;28;20038;-89
2021/12/19 02:01:00;;;;;;;72.00;21.98;;;6.30;99.90;;;;;;5009799;28;20026;-89
2021/12/19 02:03:26;;;;;;;73.50;22.65;;;6.20;99.90;;;;;;5010442;28;20034;-88
2021/12/19 02:05:52;;;;;;;68.05;22.23;;;6.20;99.90;;;;;;5009307;28;20033;-89
2021/12/19 02:08:18;;;;;;;90.97;24.30;;;6.20;99.90;;;;;;5010113;28;20030;-88
2021/12/19 02:10:44;;;;;;;76.03;23.23;;;6.20;99.90;;;;;;5014192;28;20032;-90
2021/12/19 02:13:13;;;;;;;62.45;20.20;;;6.20;99.90;;;;;;5012364;28;20018;-89
2021/12/19 02:15:41;;;;;;;50.40;19.23;;;6.10;99.90;;;;;;5010764;28;20034;-89
2021/12/19 02:18:16;;;;;;;73.03;22.42;;;6.10;99.90;;;;;;5010480;28;20398;-88
2021/12/19 02:20:47;;;;;;;59.35;20.42;;;6.10;99.90;;;;;;5012409;28;20049;-88
2021/12/19 02:23:13;;;;;;;60.95;21.63;;;6.10;99.90;;;;;;5011649;28;20022;-89
2021/12/19 02:25:39;;;;;;;68.07;21.92;;;6.10;99.90;;;;;;5010870;28;20435;-88
2021/12/19 02:28:06;;;;;;;49.42;18.15;;;6.10;99.90;;;;;;5013984;28;20025;-88
2021/12/19 02:30:32;;;;;;;50.33;19.10;;;6.00;99.90;;;;;;5008737;28;20061;-89
2021/12/19 02:32:58;;;;;;;54.08;19.90;;;6.00;99.90;;;;;;5014138;28;20080;-89
2021/12/19 02:35:28;;;;;;;62.30;20.92;;;6.00;99.90;;;;;;5010171;28;20037;-89
2021/12/19 02:48:08;;;;;;;55.05;17.40;;;6.00;99.90;;;;;;5015387;28;20030;-89
2021/12/19 02:48:45;;;;;;;52.88;17.38;;;6.00;99.90;;;;;;5012189;28;20124;-88
2021/12/19 02:51:10;;;;;;;45.45;15.18;;;6.00;99.90;;;;;;5010729;28;20124;-89
2021/12/19 02:53:39;;;;;;;49.88;16.00;;;6.00;99.90;;;;;;5013463;28;20033;-89
2021/12/19 02:56:07;;;;;;;41.55;14.77;;;6.00;99.90;;;;;;5010375;28;20030;-89
2021/12/19 02:58:35;;;;;;;50.97;17.52;;;6.00;99.90;;;;;;5011864;28;20033;-89
2021/12/19 03:01:05;;;;;;;47.63;15.90;;;5.90;99.90;;;;;;5013253;28;20433;-89
2021/12/19 03:03:30;;;;;;;44.40;15.35;;;6.00;99.90;;;;;;5013435;28;20030;-88
2021/12/19 03:05:56;;;;;;;43.38;13.25;;;5.90;99.90;;;;;;5012774;28;20060;-89
2021/12/19 03:08:22;;;;;;;47.92;13.80;;;5.90;99.90;;;;;;5012429;28;20034;-89
2021/12/19 03:17:56;;;;;;;50.83;12.82;;;5.90;99.90;;;;;;5012612;28;20593;-90
2021/12/19 03:19:02;;;;;;;44.30;12.43;;;6.00;99.90;;;;;;5014490;28;20088;-90
2021/12/19 03:21:28;;;;;;;41.40;11.55;;;6.00;99.90;;;;;;5005527;28;20101;-90
2021/12/19 03:23:53;;;;;;;44.58;11.48;;;6.00;99.90;;;;;;5009932;28;20569;-90
2021/12/19 03:26:19;;;;;;;39.47;10.35;;;5.90;99.90;;;;;;5013019;28;20049;-90
2021/12/19 03:28:45;;;;;;;40.70;9.05;;;6.00;99.90;;;;;;5012894;28;20041;-90
2021/12/19 03:31:11;;;;;;;30.35;8.70;;;6.00;99.90;;;;;;5014637;28;20044;-91
2021/12/19 03:33:38;;;;;;;33.83;7.75;;;5.90;99.90;;;;;;5012094;28;20030;-90
2021/12/19 03:36:05;;;;;;;31.35;7.55;;;5.90;99.90;;;;;;5014366;28;20156;-90
2021/12/19 03:38:33;;;;;;;32.47;7.22;;;5.90;99.90;;;;;;5009268;28;20391;-89
2021/12/19 03:41:13;;;;;;;29.38;7.00;;;5.90;99.90;;;;;;5003850;28;20025;-91
2021/12/19 03:43:39;;;;;;;34.95;7.00;;;5.90;99.90;;;;;;5010804;28;20085;-90
2021/12/19 03:46:05;;;;;;;32.28;6.75;;;5.90;99.90;;;;;;5008526;28;20018;-92
2021/12/19 03:48:31;;;;;;;35.85;7.70;;;5.90;99.90;;;;;;5011495;28;20030;-91
2021/12/19 03:50:56;;;;;;;35.45;6.88;;;5.90;99.90;;;;;;5011721;28;20413;-91
2021/12/19 03:53:22;;;;;;;33.55;7.20;;;5.90;99.90;;;;;;5012936;28;20037;-91
2021/12/19 03:55:49;;;;;;;31.63;7.05;;;6.00;99.90;;;;;;5010798;28;20022;-92
2021/12/19 03:58:15;;;;;;;42.08;8.32;;;6.00;99.90;;;;;;5012702;28;20030;-91
2021/12/19 04:00:42;;;;;;;34.10;8.02;;;6.00;99.90;;;;;;5010651;28;20033;-91
2021/12/19 04:03:10;;;;;;;36.55;7.15;;;6.00;99.90;;;;;;5008986;28;20613;-91
2021/12/19 04:05:42;;;;;;;35.65;7.22;;;6.00;99.90;;;;;;5009433;28;20105;-91
2021/12/19 04:08:07;;;;;;;36.42;7.43;;;6.00;99.90;;;;;;5012470;28;20029;-91
2021/12/19 04:10:33;;;;;;;34.92;7.38;;;6.00;99.90;;;;;;5010833;28;20026;-91
2021/12/19 04:12:58;;;;;;;38.00;8.30;;;6.00;99.90;;;;;;5004880;28;20022;-90
2021/12/19 04:15:24;;;;;;;32.08;7.15;;;6.00;99.90;;;;;;5010638;28;20032;-91
2021/12/19 04:17:50;;;;;;;33.95;8.02;;;6.00;99.90;;;;;;5011987;28;20034;-91
2021/12/19 04:20:18;;;;;;;35.72;8.85;;;6.00;99.90;;;;;;5012070;28;20032;-91
2021/12/19 04:22:44;;;;;;;39.63;8.38;;;6.00;99.90;;;;;;5011783;28;20032;-90
2021/12/19 04:25:11;;;;;;;37.83;9.27;;;6.00;99.90;;;;;;5010083;28;20065;-91
2021/12/19 04:27:37;;;;;;;47.67;9.05;;;6.00;99.90;;;;;;5003943;28;20064;-89
2021/12/19 04:30:04;;;;;;;35.67;8.75;;;6.00;99.90;;;;;;5012626;28;20026;-90
2021/12/19 04:32:39;;;;;;;39.13;8.05;;;6.00;99.90;;;;;;5011336;28;20045;-91
2021/12/19 04:35:05;;;;;;;32.80;8.68;;;6.00;99.90;;;;;;5011080;28;20064;-89
2021/12/19 04:38:14;;;;;;;37.13;8.40;;;6.00;99.90;;;;;;5011955;28;20482;-91
2021/12/19 04:40:37;;;;;;;34.53;7.63;;;6.00;99.90;;;;;;5008734;28;20029;-90
2021/12/19 04:54:32;;;;;;;30.42;7.72;;;5.90;99.90;;;;;;4999440;28;20608;-90
2021/12/19 05:02:28;;;;;;;34.92;6.88;;;6.00;99.90;;;;;;5012921;28;20037;-91
2021/12/19 05:15:51;;;;;;;26.90;4.53;;;6.00;99.90;;;;;;5012698;28;20501;-90
2021/12/19 05:18:17;;;;;;;35.15;6.53;;;6.10;99.90;;;;;;5012656;28;20482;-90
2021/12/19 05:20:52;;;;;;;34.25;6.15;;;6.10;99.90;;;;;;5010910;28;20050;-91
2021/12/19 05:23:26;;;;;;;37.42;6.82;;;6.10;99.90;;;;;;5008862;28;20041;-91
2021/12/19 05:25:52;;;;;;;33.40;7.10;;;6.20;99.90;;;;;;5009032;28;20041;-92
2021/12/19 05:28:18;;;;;;;37.67;6.47;;;6.20;99.90;;;;;;5012147;28;20025;-92
2021/12/19 05:30:43;;;;;;;39.72;6.38;;;6.20;99.90;;;;;;5009607;28;20886;-91
2021/12/19 05:33:09;;;;;;;29.02;5.90;;;6.20;99.90;;;;;;5010596;28;20022;-93
2021/12/19 05:46:26;;;;;;;38.80;5.68;;;6.20;99.90;;;;;;5014594;28;20049;-92
2021/12/19 05:48:53;;;;;;;33.97;5.70;;;6.20;99.90;;;;;;5007221;28;20034;-92
2021/12/19 05:51:19;;;;;;;37.70;5.40;;;6.30;99.90;;;;;;5014656;28;20034;-93
2021/12/19 05:53:45;;;;;;;32.13;5.32;;;6.30;99.90;;;;;;5020409;28;20014;-94
2021/12/19 05:56:10;;;;;;;31.10;5.72;;;6.30;99.90;;;;;;5020316;28;20030;-92
2021/12/19 05:58:36;;;;;;;30.90;5.70;;;6.30;99.90;;;;;;5016711;28;20026;-93
2021/12/19 06:01:02;;;;;;;29.20;5.47;;;6.30;99.90;;;;;;5016879;28;20566;-92
2021/12/19 06:03:27;;;;;;;32.55;5.93;;;6.30;99.90;;;;;;5021412;28;20030;-92
2021/12/19 06:05:53;;;;;;;33.47;6.28;;;6.30;99.90;;;;;;5016993;28;20104;-92
2021/12/19 06:08:18;;;;;;;46.15;7.32;;;6.30;99.90;;;;;;5021989;28;20128;-92
2021/12/19 06:10:44;;;;;;;32.70;5.57;;;6.30;99.90;;;;;;5021626;28;20494;-93
2021/12/19 06:13:09;;;;;;;36.78;6.28;;;6.30;99.90;;;;;;5019041;28;20022;-93
2021/12/19 06:15:36;;;;;;;43.85;6.82;;;6.40;99.90;;;;;;5015650;28;20037;-91
2021/12/19 06:18:02;;;;;;;41.15;6.70;;;6.40;99.90;;;;;;5013992;28;20030;-91
2021/12/19 06:20:28;;;;;;;36.20;6.13;;;6.40;99.90;;;;;;5016688;28;20085;-90
2021/12/19 06:22:54;;;;;;;41.05;7.93;;;6.40;99.90;;;;;;5016968;28;20026;-91
2021/12/19 06:25:19;;;;;;;52.40;7.20;;;6.40;99.90;;;;;;5017298;28;20037;-92
2021/12/19 06:27:45;;;;;;;41.97;7.55;;;6.40;99.90;;;;;;5014765;28;20009;-92
2021/12/19 06:30:11;;;;;;;44.25;7.43;;;6.40;99.90;;;;;;5016980;28;20034;-92
2021/12/19 06:32:37;;;;;;;52.55;8.18;;;6.40;99.90;;;;;;5016646;28;21545;-93
2021/12/19 06:35:07;;;;;;;41.55;7.25;;;6.40;99.90;;;;;;5017124;28;20474;-93
2021/12/19 06:37:37;;;;;;;48.67;6.93;;;6.40;99.90;;;;;;5013904;28;20524;-93
2021/12/19 06:40:05;;;;;;;30.90;5.80;;;6.50;99.90;;;;;;5015812;28;20057;-92
2021/12/19 06:42:31;;;;;;;56.50;8.45;;;6.50;99.90;;;;;;5014712;28;20033;-91
2021/12/19 06:44:56;;;;;;;48.05;8.68;;;6.50;99.90;;;;;;5015096;28;20048;-92
2021/12/19 06:47:22;;;;;;;35.97;7.55;;;6.50;99.90;;;;;;5015188;28;20026;-91
2021/12/19 06:49:47;;;;;;;54.33;10.35;;;6.50;99.90;;;;;;5012154;28;20018;-91
2021/12/19 06:52:13;;;;;;;47.25;9.10;;;6.60;99.90;;;;;;5014329;28;20474;-92
2021/12/19 06:54:38;;;;;;;47.70;10.32;;;6.60;99.90;;;;;;5013168;28;20030;-92
2021/12/19 06:57:04;;;;;;;55.33;9.50;;;6.60;99.90;;;;;;5014434;28;20038;-92
2021/12/19 06:59:30;;;;;;;48.45;8.70;;;6.60;99.90;;;;;;5013951;28;20124;-92
2021/12/19 07:01:55;;;;;;;48.67;10.25;;;6.60;99.90;;;;;;5014540;28;20026;-92
2021/12/19 07:04:20;;;;;;;45.92;8.85;;;6.70;99.90;;;;;;5013176;28;20044;-91
2021/12/19 07:06:46;;;;;;;40.63;8.52;;;6.70;99.90;;;;;;5016532;28;20018;-90
2021/12/19 07:09:11;;;;;;;46.08;9.35;;;6.70;99.90;;;;;;5011903;28;20375;-91
2021/12/19 07:11:37;;;;;;;39.90;9.15;;;6.70;99.90;;;;;;5015905;28;20030;-90
2021/12/19 07:14:03;;;;;;;37.25;8.88;;;6.70;99.90;;;;;;5013856;28;20041;-91
2021/12/19 07:16:28;;;;;;;35.72;9.20;;;6.70;99.90;;;;;;5012160;28;20021;-90
2021/12/19 07:18:54;;;;;;;29.60;8.13;;;6.80;99.90;;;;;;5009679;28;20025;-90
2021/12/19 07:21:19;;;;;;;30.42;8.45;;;6.80;99.90;;;;;;5010488;28;20133;-91
2021/12/19 07:23:45;;;;;;;29.23;7.88;;;6.80;99.90;;;;;;5012252;28;20034;-90
2021/12/19 07:26:11;;;;;;;34.33;8.10;;;6.80;99.90;;;;;;5010290;28;20026;-89
2021/12/19 07:28:37;;;;;;;34.97;8.77;;;6.90;99.90;;;;;;5013251;28;20029;-90
2021/12/19 07:31:02;;;;;;;28.73;7.90;;;6.90;99.90;;;;;;5012997;28;20022;-89
2021/12/19 07:33:28;;;;;;;28.77;7.22;;;6.90;99.90;;;;;;5015939;28;20109;-90
2021/12/19 07:35:55;;;;;;;16.00;5.35;;;6.90;99.90;;;;;;5014107;28;20018;-89
2021/12/19 07:38:30;;;;;;;16.45;4.43;;;6.90;99.90;;;;;;5012262;28;20034;-90
2021/12/19 07:40:58;;;;;;;11.80;2.60;;;6.90;99.90;;;;;;5014519;28;20101;-89
2021/12/19 07:43:24;;;;;;;7.72;1.70;;;6.90;99.90;;;;;;5010920;28;20467;-90
2021/12/19 07:45:49;;;;;;;8.32;1.40;;;6.90;99.90;;;;;;5013729;28;20076;-89
2021/12/19 07:48:15;;;;;;;8.50;1.35;;;6.90;99.90;;;;;;5012703;28;20041;-89
2021/12/19 07:50:40;;;;;;;6.43;0.85;;;6.90;99.90;;;;;;5011167;28;20192;-90
2021/12/19 07:53:08;;;;;;;6.15;0.88;;;6.90;99.90;;;;;;5008912;28;21873;-90
2021/12/19 07:55:34;;;;;;;6.15;0.65;;;6.80;99.90;;;;;;5015604;28;20116;-90
2021/12/19 07:57:59;;;;;;;9.93;1.27;;;6.90;99.90;;;;;;5013598;28;20050;-90
2021/12/19 08:00:25;;;;;;;6.07;1.02;;;6.80;99.90;;;;;;5010543;28;20372;-90
2021/12/19 08:02:51;;;;;;;6.32;0.77;;;6.90;99.90;;;;;;5009620;28;20026;-90
2021/12/19 08:05:17;;;;;;;7.47;0.93;;;6.90;99.90;;;;;;5011358;28;20125;-90
2021/12/19 08:07:47;;;;;;;5.35;0.90;;;6.80;99.90;;;;;;5006440;28;20031;-90
2021/12/19 08:11:39;;;;;;;7.70;0.95;;;6.80;99.90;;;;;;5009107;28;20033;-90
2021/12/19 08:13:04;;;;;;;7.82;0.85;;;6.80;99.90;;;;;;5012852;28;20062;-90
2021/12/19 08:15:30;;;;;;;6.30;0.80;;;6.80;99.90;;;;;;5011105;28;20561;-90
2021/12/19 08:17:56;;;;;;;6.05;0.70;;;6.70;99.90;;;;;;5009728;28;20109;-89
2021/12/19 08:20:21;;;;;;;4.88;0.77;;;6.70;99.90;;;;;;5010738;28;20034;-92
2021/12/19 08:22:49;;;;;;;4.20;0.80;;;6.70;99.90;;;;;;5010118;28;20084;-90
2021/12/19 08:25:14;;;;;;;4.50;0.63;;;6.70;99.90;;;;;;5010974;28;20105;-90
2021/12/19 08:27:40;;;;;;;4.60;0.90;;;6.70;99.90;;;;;;5009916;28;20034;-90
2021/12/19 08:30:09;;;;;;;3.50;0.80;;;6.70;99.90;;;;;;5011582;28;20442;-90
2021/12/19 08:32:35;;;;;;;2.47;0.60;;;6.70;99.90;;;;;;5011195;28;20048;-90
2021/12/19 08:35:01;;;;;;;3.83;0.50;;;6.60;99.90;;;;;;5028737;28;20140;-89
2021/12/19 08:37:27;;;;;;;1.73;0.40;;;6.60;99.90;;;;;;5013412;28;20449;-90
2021/12/19 08:39:52;;;;;;;2.47;0.20;;;6.60;99.90;;;;;;5010873;28;20057;-90
2021/12/19 08:42:18;;;;;;;1.58;0.17;;;6.60;99.90;;;;;;5008265;28;20060;-89
2021/12/19 08:44:44;;;;;;;1.63;0.20;;;6.50;99.90;;;;;;5002627;28;20036;-90
2021/12/19 08:47:10;;;;;;;2.42;0.20;;;6.50;99.90;;;;;;5001173;28;20116;-89
2021/12/19 08:49:36;;;;;;;3.05;0.20;;;6.50;99.90;;;;;;4999673;28;20105;-89
2021/12/19 08:52:03;;;;;;;1.90;0.20;;;6.60;99.90;;;;;;5004283;28;20026;-90
2021/12/19 08:54:29;;;;;;;1.42;0.20;;;6.60;99.90;;;;;;5003223;28;20065;-90
2021/12/19 08:56:54;;;;;;;1.48;0.30;;;6.70;99.90;;;;;;5004777;28;20425;-89
2021/12/19 08:59:20;;;;;;;0.95;0.20;;;6.70;99.90;;;;;;5004164;28;20022;-89
2021/12/19 09:01:47;;;;;;;1.75;0.30;;;6.60;99.90;;;;;;5004115;28;20410;-88
2021/12/19 09:04:13;;;;;;;3.92;0.35;;;6.60;99.90;;;;;;5001992;28;20040;-88
2021/12/19 09:06:39;;;;;;;3.50;0.40;;;6.70;99.90;;;;;;5007875;28;20030;-89
2021/12/19 09:09:05;;;;;;;2.85;0.50;;;6.60;99.90;;;;;;5009530;28;20033;-89
2021/12/19 09:11:32;;;;;;;2.95;0.70;;;6.70;99.90;;;;;;5012099;28;20057;-89
2021/12/19 09:13:58;;;;;;;4.53;0.80;;;6.70;99.90;;;;;;5012762;28;20033;-90
2021/12/19 09:16:24;;;;;;;2.40;0.50;;;6.70;99.90;;;;;;5014836;28;20421;-89
2021/12/19 09:18:50;;;;;;;3.65;0.60;;;6.80;99.90;;;;;;5013685;28;20018;-90
2021/12/19 09:21:15;;;;;;;3.63;0.80;;;6.80;99.90;;;;;;5016324;28;20046;-89
2021/12/19 09:23:41;;;;;;;4.28;0.77;;;6.80;99.90;;;;;;5017561;28;20034;-89
2021/12/19 09:26:07;;;;;;;2.92;0.68;;;6.90;99.90;;;;;;5017416;28;20029;-89
2021/12/19 09:28:32;;;;;;;2.05;0.50;;;6.90;99.90;;;;;;5012204;28;20054;-88
2021/12/19 09:30:58;;;;;;;4.60;0.75;;;6.90;99.90;;;;;;5013393;28;20041;-89
2021/12/19 09:33:23;;;;;;;3.20;0.70;;;6.90;99.90;;;;;;5014659;28;20040;-89
2021/12/19 09:35:49;;;;;;;3.63;1.30;;;6.90;99.90;;;;;;5017527;28;20022;-88
2021/12/19 09:38:15;;;;;;;3.85;0.88;;;7.00;99.90;;;;;;5016286;28;20054;-88
2021/12/19 09:40:43;;;;;;;3.13;0.60;;;7.00;99.90;;;;;;5016285;28;20026;-89
2021/12/19 09:43:21;;;;;;;2.75;0.50;;;7.10;99.90;;;;;;5014997;28;20398;-88
2021/12/19 09:45:52;;;;;;;1.55;0.57;;;7.10;99.90;;;;;;5013512;28;20045;-90
2021/12/19 09:48:18;;;;;;;3.78;0.70;;;7.20;99.90;;;;;;5010440;28;20390;-91
2021/12/19 09:50:44;;;;;;;2.92;0.65;;;7.20;99.90;;;;;;5013779;28;20030;-90
2021/12/19 09:53:09;;;;;;;1.98;0.60;;;7.30;99.90;;;;;;5015994;28;20033;-91
2021/12/19 09:55:35;;;;;;;2.22;0.50;;;7.30;99.90;;;;;;5014978;28;20407;-88
2021/12/19 09:58:00;;;;;;;1.50;0.40;;;7.30;99.90;;;;;;5014379;28;20026;-90
2021/12/19 10:00:26;;;;;;;2.67;0.52;;;7.30;99.90;;;;;;5012562;28;20073;-91
2021/12/19 10:02:52;;;;;;;1.15;0.20;;;7.30;99.90;;;;;;5025945;28;20088;-90
2021/12/19 10:05:26;;;;;;;0.65;0.20;;;7.30;99.90;;;;;;5015463;28;20193;-91
2021/12/19 10:07:57;;;;;;;1.17;0.20;;;7.20;99.90;;;;;;5014353;28;20037;-92
2021/12/19 10:10:54;;;;;;;0.95;0.20;;;7.20;99.90;;;;;;5014680;28;20034;-88
2021/12/19 10:13:36;;;;;;;0.93;0.25;;;7.10;99.90;;;;;;5014784;28;20030;-88
2021/12/19 10:16:25;;;;;;;2.70;0.40;;;7.20;99.90;;;;;;5013449;28;20182;-89
2021/12/19 10:18:52;;;;;;;1.77;0.40;;;7.20;99.90;;;;;;5012177;28;20030;-89
2021/12/19 10:21:22;;;;;;;1.10;0.30;;;7.20;99.90;;;;;;5015212;28;20128;-89
2021/12/19 10:23:48;;;;;;;0.90;0.20;;;7.20;99.90;;;;;;5010890;28;20029;-89
2021/12/19 10:26:14;;;;;;;2.38;0.30;;;7.20;99.90;;;;;;5011231;28;20028;-89
2021/12/19 10:28:54;;;;;;;1.95;0.82;;;7.20;99.90;;;;;;5017146;28;20022;-89
2021/12/19 10:31:20;;;;;;;2.10;0.50;;;7.30;99.90;;;;;;5015062;28;20409;-89
2021/12/19 10:33:47;;;;;;;1.83;0.47;;;7.30;99.90;;;;;;5014633;28;20034;-90
2021/12/19 10:36:14;;;;;;;4.28;0.70;;;7.30;99.90;;;;;;5013688;28;20156;-89
2021/12/19 10:38:46;;;;;;;4.75;1.13;;;7.30;99.90;;;;;;5008167;28;20036;-89
2021/12/19 10:41:15;;;;;;;4.77;1.10;;;7.30;99.90;;;;;;5014257;28;20053;-89
2021/12/19 10:43:57;;;;;;;3.17;0.90;;;7.30;99.90;;;;;;5015772;28;20056;-89
2021/12/19 10:46:35;;;;;;;4.10;1.20;;;7.30;99.90;;;;;;5011514;28;20532;-88
2021/12/19 10:49:02;;;;;;;3.72;1.13;;;7.30;99.90;;;;;;5030837;28;20029;-89
2021/12/19 10:51:30;;;;;;;4.13;1.35;;;7.30;99.90;;;;;;5013834;28;20505;-88
2021/12/19 10:54:00;;;;;;;4.53;1.35;;;7.30;99.90;;;;;;5014112;28;20053;-88
2021/12/19 10:56:31;;;;;;;8.15;2.00;;;7.30;99.90;;;;;;5014239;28;20509;-90
2021/12/19 10:59:06;;;;;;;9.40;2.00;;;7.30;99.90;;;;;;5015493;28;20032;-91
2021/12/19 11:01:37;;;;;;;5.50;2.00;;;7.30;99.90;;;;;;5010435;28;20038;-90
2021/12/19 11:04:29;;;;;;;9.82;2.50;;;7.30;99.90;;;;;;5013568;28;20051;-90
2021/12/19 11:06:58;;;;;;;7.60;2.50;;;7.30;99.90;;;;;;5012530;28;20359;-88
2021/12/19 11:09:34;;;;;;;8.57;2.97;;;7.30;99.90;;;;;;5022383;28;20057;-90
2021/12/19 11:12:05;;;;;;;6.00;2.58;;;7.30;99.90;;;;;;5008044;28;20029;-90
2021/12/19 11:14:47;;;;;;;9.57;2.65;;;7.30;99.90;;;;;;5009747;28;20085;-89
2021/12/19 11:17:22;;;;;;;7.93;2.40;;;7.30;99.90;;;;;;5012575;28;20025;-89
2021/12/19 11:19:50;;;;;;;7.25;2.95;;;7.30;99.90;;;;;;5014090;28;20497;-89
2021/12/19 11:22:23;;;;;;;7.07;2.75;;;7.30;99.90;;;;;;5010968;28;20129;-88
2021/12/19 11:24:51;;;;;;;9.63;3.60;;;7.40;99.90;;;;;;5024218;28;20053;-89
2021/12/19 11:27:17;;;;;;;9.02;2.90;;;7.40;99.90;;;;;;5012561;28;20029;-88
2021/12/19 11:29:44;;;;;;;10.65;3.72;;;7.40;99.90;;;;;;5010039;28;20030;-88
2021/12/19 11:32:18;;;;;;;11.02;3.58;;;7.40;99.90;;;;;;5012611;28;20022;-88
2021/12/19 11:35:05;;;;;;;6.82;2.65;;;7.40;99.90;;;;;;5009674;28;20029;-89
2021/12/19 11:37:49;;;;;;;9.63;3.60;;;7.50;99.90;;;;;;5013435;28;20056;-92
2021/12/19 11:40:17;;;;;;;8.70;3.03;;;7.40;99.90;;;;;;5012654;28;20030;-88
2021/12/19 11:42:43;;;;;;;9.00;3.17;;;7.40;99.90;;;;;;5019215;28;20021;-87
2021/12/19 11:47:54;;;;;;;8.90;3.55;;;7.40;99.90;;;;;;5010461;28;20025;-87
2021/12/19 11:50:29;;;;;;;9.00;3.17;;;7.40;99.90;;;;;;5028485;28;20021;-88
2021/12/19 11:53:09;;;;;;;10.95;4.70;;;7.40;99.90;;;;;;5009493;28;20044;-90
2021/12/19 11:55:40;;;;;;;10.10;3.42;;;7.40;99.90;;;;;;5006606;28;20527;-89
2021/12/19 11:58:08;;;;;;;9.82;3.58;;;7.40;99.90;;;;;;5010239;28;20038;-88
2021/12/19 12:00:43;;;;;;;9.85;4.20;;;7.40;99.90;;;;;;5009706;28;20037;-88
2021/12/19 12:03:11;;;;;;;14.25;3.95;;;7.50;99.90;;;;;;5011937;28;20505;-88
2021/12/19 12:05:42;;;;;;;13.20;5.05;;;7.40;99.90;;;;;;5011124;28;20073;-88
2021/12/19 12:08:08;;;;;;;9.27;3.47;;;7.50;99.90;;;;;;5027206;28;20022;-89
2021/12/19 12:13:29;;;;;;;13.75;3.38;;;7.50;99.90;;;;;;5006268;28;20068;-88
2021/12/19 12:16:23;;;;;;;8.60;4.00;;;7.50;99.90;;;;;;5011218;28;20088;-88
2021/12/19 12:19:01;;;;;;;10.32;3.38;;;7.50;99.90;;;;;;5025810;28;20034;-88
2021/12/19 12:21:31;;;;;;;9.32;3.22;;;7.50;99.90;;;;;;5008010;28;20057;-88
2021/12/19 12:24:02;;;;;;;9.32;3.25;;;7.50;99.90;;;;;;5010393;28;20125;-89
2021/12/19 12:26:48;;;;;;;13.15;4.55;;;7.50;99.90;;;;;;5011313;28;20060;-89
2021/12/19 12:29:15;;;;;;;9.30;4.22;;;7.50;99.90;;;;;;5010508;28;20030;-88
2021/12/19 12:31:46;;;;;;;13.90;3.92;;;7.40;99.90;;;;;;5024489;28;20072;-88
2021/12/19 12:34:15;;;;;;;15.57;5.25;;;7.50;99.90;;;;;;5010421;28;20030;-89
2021/12/19 12:36:41;;;;;;;19.48;5.32;;;7.40;99.90;;;;;;5010230;28;20040;-88
2021/12/19 12:39:15;;;;;;;16.60;6.20;;;7.40;99.90;;;;;;5010945;28;20556;-88
2021/12/19 12:44:15;;;;;;;11.73;4.60;;;7.40;99.90;;;;;;5009174;28;20065;-88
2021/12/19 12:46:42;;;;;;;16.13;4.95;;;7.40;99.90;;;;;;5007965;28;20030;-86
2021/12/19 12:49:10;;;;;;;13.60;4.22;;;7.50;99.90;;;;;;5010575;28;20025;-87
2021/12/19 12:51:38;;;;;;;13.07;3.88;;;7.50;99.90;;;;;;5010736;28;20436;-87
2021/12/19 12:54:13;;;;;;;10.93;3.80;;;7.50;99.90;;;;;;5009321;28;20083;-87
2021/12/19 12:56:46;;;;;;;13.45;3.88;;;7.50;99.90;;;;;;5011533;28;20026;-87
2021/12/19 12:59:14;;;;;;;15.88;5.88;;;7.50;99.90;;;;;;5014703;28;20254;-88
2021/12/19 13:01:47;;;;;;;10.02;4.55;;;7.60;99.90;;;;;;5016689;28;20430;-89
2021/12/19 13:04:22;;;;;;;11.90;4.05;;;7.50;99.90;;;;;;5011274;28;20040;-87
2021/12/19 13:07:04;;;;;;;10.00;3.65;;;7.50;99.90;;;;;;5013932;28;20597;-88
2021/12/19 13:09:54;;;;;;;12.83;3.53;;;7.50;99.90;;;;;;5015597;28;20034;-89
2021/12/19 13:12:25;;;;;;;12.40;3.40;;;7.50;99.90;;;;;;5025663;28;20350;-88
2021/12/19 13:14:52;;;;;;;21.23;6.47;;;7.50;99.90;;;;;;5028791;28;20027;-88
2021/12/19 13:17:19;;;;;;;10.65;3.75;;;7.50;99.90;;;;;;5013872;28;20049;-88
2021/12/19 13:19:47;;;;;;;13.63;4.93;;;7.40;99.90;;;;;;5006474;28;20068;-90
2021/12/19 13:22:20;;;;;;;11.95;3.70;;;7.50;99.90;;;;;;5014907;28;20034;-89
2021/12/19 13:24:47;;;;;;;14.88;4.20;;;7.40;99.90;;;;;;5010766;28;20376;-88
2021/12/19 13:27:16;;;;;;;10.13;3.47;;;7.50;99.90;;;;;;5015046;28;20029;-89
2021/12/19 13:29:55;;;;;;;12.27;3.70;;;7.50;99.90;;;;;;5008892;28;20038;-88
2021/12/19 13:32:26;;;;;;;14.30;4.22;;;7.40;99.90;;;;;;5012035;28;20025;-87
2021/12/19 13:34:52;;;;;;;9.10;2.58;;;7.50;99.90;;;;;;5028968;28;20517;-89
2021/12/19 13:37:19;;;;;;;7.82;1.88;;;7.50;99.90;;;;;;5015231;28;20029;-88
2021/12/19 13:39:56;;;;;;;7.22;2.13;;;7.50;99.90;;;;;;5017804;28;20049;-88
2021/12/19 13:42:22;;;;;;;7.43;1.75;;;7.50;99.90;;;;;;5032590;28;20025;-87
2021/12/19 13:44:48;;;;;;;7.95;1.83;;;7.50;99.90;;;;;;5012205;28;20041;-88
2021/12/19 13:47:23;;;;;;;7.60;1.73;;;7.50;99.90;;;;;;5012850;28;20368;-88
2021/12/19 13:49:49;;;;;;;5.57;1.35;;;7.50;99.90;;;;;;5007833;28;20037;-89
2021/12/19 13:52:15;;;;;;;8.48;2.08;;;7.50;99.90;;;;;;5014355;28;20399;-89
2021/12/19 13:54:41;;;;;;;7.95;1.90;;;7.50;99.90;;;;;;5011146;28;20034;-89
2021/12/19 13:57:22;;;;;;;8.40;2.03;;;7.50;99.90;;;;;;5013677;28;20022;-88